Relevés horaires Bierset (Belgique)


Relevés horaires à Bierset - Mercredi 29 Janv. 2020
Heure UTC1 Température [°C] Vent [km/h] Hum. [%] Pres.4 [hPa] Visi. [Km] Nébu. [octa] Préc.5 [mm] Cond.
2m. Res. Ros. Dir.2 Vit. Moy. Raf.3
23:00 4.9 2.3 1.9 SO 11.1 13.0 18.5 81 1015(0.3/3h) 26 5/8 -- --
22:00 5.5 3 2.0 SO 11.1 11.1 16.7 78 1014.8(0.7/3h) 26 6/8 -- --
21:00 5.4 2.9 2.1 SO 11.1 11.1 14.8 79 1014.7(0.8/3h) 26 6/8 -- --
20:00 5.1 2.9 1.9 SO 9.3 9.3 13.0 80 1014.7(1.3/3h) 30 6/8 -- --
19:00 4.2 1.9 0.6 SO 9.3 9.3 11.1 77 1014.1(1.6/3h) 30 5/8 -- --
18:00 3.6 1.2 0.4 SO 9.3 16.7 22.2 80 1014.1(1.9/3h) 30 5/8 0/12h
--
17:00 4.7 2.5 0.3 OSO 9.3 9.3 13.0 73 1013.3(2.0/3h) 30 5/8 -- --
16:00 4.9 2.7 0.2 OSO 9.3 13.0 18.5 72 1012.4(1.8/3h) 20 6/8 -- --
15:00 5.7 2.9 0.7 O 13.0 16.7 22.2 70 1011.9(1.8/3h) 20 4/8 -- --
14:00 5.5 2.7 1.2 O 13.0 16.7 22.2 74 1011.2(1.2/3h) 20 3/8 -- --
13:00 5.0 1.8 0.9 O 14.8 16.7 22.2 75 1010.6(1.5/3h) 20 5/8 -- --
12:00 5.2 2 1.3 O 14.8 18.5 25.9 76 1010.1(1.4/3h) 20 5/8 0/6h
--
11:00 4.4 1 1.1 O 14.8 18.5 25.9 79 1010.1(1.9/3h) 20 5/8 -- --
10:00 3.8 0 0.7 OSO 16.7 18.5 25.9 80 1009.2(1.5/3h) 20 4/8 -- --
09:00 3.2 -0.1 1.0 OSO 13.0 14.8 20.4 85 1008.9(1.7/3h) 20 4/8 -- --
08:00 2.9 -0.5 0.9 OSO 13.0 13.0 18.5 87 1008.2(1.7/3h) 20 7/8 -- --
07:00 2.5 -0.6 0.5 SO 11.1 13.0 16.7 87 1007.7(1.4/3h) 20 7/8 -- --
06:00 1.9 -1.3 -- SO 11.1 14.8 22.2 -- 1007.2(1.5/3h) 20 6/8 3/12h
--
05:00 1.9 -1.7 0.1 SO 13.0 13.0 18.5 88 1006.6(1.5/3h) 30 5/8 -- --
04:00 2.8 -0.6 0.8 OSO 13.0 14.8 20.4 87 1006.3(2.5/3h) 30 7/8 -- --
03:00 2.9 -0.5 1.1 OSO 13.0 14.8 22.2 88 1005.7(2.6/3h) 30 6/8 -- --
02:00 3.0 -0.7 1.3 OSO 14.8 14.8 20.4 89 1005(2.9/3h) 30 7/8 -- --
01:00 2.8 -0.6 1.1 OSO 13.0 14.8 18.5 89 1003.7(1.8/3h) 30 7/8 -- --
00:00 2.7 -0.7 1.2 OSO 13.0 16.7 25.9 90 1003(1.4/3h) 30 7/8 3/6h
6.3/24h
Etat du ciel inchangé

1 Coordinated Universal Time. Actuellement il est 07:00 locale et 05:00 UTC.

2 Le vent souffle depuis la direction indiquée vers la direction oposée.

3 Les rafales max. sont disponible 40 min après l'heure du relevé.

4 Pour les stations d'altitude (plus de 600m) le géopotentiel du niveau le plus proche de la pression obligatoire est indiqué.

5 Les stations disposant d'un diffuseur peuvent indiquer "trace". Cela signifie que des précipitations ont touchés le sol mais que la quantité est inférieure à 0.1 mm.

Récapitulatif de la journée
Température [°C] Vent [km/h] Ensoleillement4 [h] Precipitations totale5 [mm] Pression [Hpa]
Min1 Max.2 Moy.3 Max. Min Max.
0.9 5.8 14.3 25.9 0 h 0 min 0 1003.0 1015.0

1 Température minimale relevée entre 18:00 UTC la veille et 18:00 UTC le jour donné.

2 Température maximale relevée entre 06:00 UTC le jour donné et 06:00 UTC le lendemain.

3 Vent moyen de la journée basé sur les relevés horaires.

4 Ensoleillement en heures relevé entre 06:00 UTC la veille et 06:00 UTC le jour donné.

5 Précipitations totales tombées entre 06:00 UTC la jour donné et 06:00 UTC le lendemain.

Graphiques horaires